createdAt,value
2018-05-06T00:00:45.816Z,100528.91
2018-05-06T00:03:17.443Z,100532.60
2018-05-06T00:05:49.530Z,100533.54
2018-05-06T00:08:21.834Z,100529.11
2018-05-06T00:10:55.046Z,100533.61
2018-05-06T00:13:28.646Z,100534.16
2018-05-06T00:16:00.583Z,100532.52
2018-05-06T00:18:32.303Z,100536.63
2018-05-06T00:21:04.448Z,100538.82
2018-05-06T00:23:35.887Z,100541.55
2018-05-06T00:26:08.059Z,100541.30
2018-05-06T00:28:39.414Z,100537.66
2018-05-06T00:31:11.246Z,100533.72
2018-05-06T00:33:43.384Z,100536.31
2018-05-06T00:36:14.914Z,100539.98
2018-05-06T00:38:47.988Z,100537.99
2018-05-06T00:41:19.447Z,100536.84
2018-05-06T00:43:51.436Z,100529.25
2018-05-06T00:46:22.959Z,100539.73
2018-05-06T00:48:54.689Z,100533.15
2018-05-06T00:51:27.133Z,100534.34
2018-05-06T00:53:59.613Z,100545.62
2018-05-06T00:56:30.724Z,100543.52
2018-05-06T00:59:02.742Z,100531.87
2018-05-06T01:03:59.094Z,100537.61
2018-05-06T01:06:30.373Z,100540.00
2018-05-06T01:09:01.770Z,100546.35
2018-05-06T01:11:33.243Z,100548.65
2018-05-06T01:14:04.650Z,100543.08
2018-05-06T01:16:36.582Z,100550.41
2018-05-06T01:19:12.692Z,100553.66
2018-05-06T01:21:44.805Z,100553.05
2018-05-06T01:24:18.998Z,100550.84
2018-05-06T01:26:50.698Z,100540.33
2018-05-06T01:29:22.440Z,100549.81
2018-05-06T01:31:53.911Z,100551.52
2018-05-06T01:34:32.053Z,100549.00
2018-05-06T01:37:03.945Z,100544.30
2018-05-06T01:39:35.288Z,100548.80
2018-05-06T01:42:07.825Z,100548.46
2018-05-06T01:44:39.365Z,100549.24
2018-05-06T01:47:10.686Z,100544.14
2018-05-06T01:49:44.728Z,100545.73
2018-05-06T01:52:16.896Z,100542.33
2018-05-06T01:54:49.203Z,100552.41
2018-05-06T01:57:21.844Z,100546.22
2018-05-06T01:59:53.182Z,100547.23
2018-05-06T02:02:24.338Z,100556.59
2018-05-06T02:04:56.710Z,100552.07
2018-05-06T02:07:28.412Z,100555.23
2018-05-06T02:10:00.167Z,100552.27
2018-05-06T02:12:33.580Z,100552.33
2018-05-06T02:15:07.701Z,100549.75
2018-05-06T02:17:39.023Z,100556.53
2018-05-06T02:20:10.338Z,100548.80
2018-05-06T02:25:09.264Z,100543.79
2018-05-06T02:27:40.676Z,100552.41
2018-05-06T02:30:13.856Z,100546.34
2018-05-06T02:32:45.463Z,100547.50
2018-05-06T02:35:17.817Z,100545.45
2018-05-06T02:37:52.155Z,100549.67
2018-05-06T02:40:25.188Z,100538.23
2018-05-06T02:42:57.822Z,100529.14
2018-05-06T02:45:30.272Z,100549.31
2018-05-06T02:48:02.989Z,100550.17
2018-05-06T02:50:36.123Z,100553.45
2018-05-06T02:53:08.317Z,100551.12
2018-05-06T02:55:40.517Z,100550.47
2018-05-06T02:58:13.752Z,100555.78
2018-05-06T03:00:44.974Z,100548.94
2018-05-06T03:03:16.811Z,100552.46
2018-05-06T03:05:49.114Z,100555.48
2018-05-06T03:08:20.589Z,100551.27
2018-05-06T03:10:53.251Z,100551.33
2018-05-06T03:13:25.902Z,100556.60
2018-05-06T03:15:57.259Z,100553.95
2018-05-06T03:18:28.687Z,100558.80
2018-05-06T03:21:00.705Z,100548.93
2018-05-06T03:23:32.935Z,100549.14
2018-05-06T03:26:05.168Z,100551.05
2018-05-06T03:28:36.733Z,100555.42
2018-05-06T03:31:08.089Z,100555.00
2018-05-06T03:33:40.001Z,100557.55
2018-05-06T03:36:12.223Z,100560.09
2018-05-06T03:38:43.652Z,100561.13
2018-05-06T03:41:15.898Z,100564.17
2018-05-06T03:43:47.703Z,100563.28
2018-05-06T03:46:19.106Z,100561.77
2018-05-06T03:48:50.337Z,100562.04
2018-05-06T03:51:24.787Z,100567.62
2018-05-06T03:53:56.173Z,100574.69
2018-05-06T03:58:38.980Z,100573.57
2018-05-06T04:01:10.927Z,100563.95
2018-05-06T04:03:43.475Z,100570.80
2018-05-06T04:06:15.765Z,100570.53
2018-05-06T04:08:47.209Z,100579.31
2018-05-06T04:11:20.598Z,100580.66
2018-05-06T04:13:51.927Z,100550.42
2018-05-06T04:16:23.385Z,100571.27
2018-05-06T04:18:55.324Z,100579.28
2018-05-06T04:21:26.740Z,100568.57
2018-05-06T04:23:59.181Z,100564.61
2018-05-06T04:26:33.539Z,100574.22
2018-05-06T04:29:05.749Z,100570.27
2018-05-06T04:31:38.952Z,100567.00
2018-05-06T04:34:10.760Z,100564.60
2018-05-06T04:36:42.205Z,100569.77
2018-05-06T04:39:15.451Z,100573.01
2018-05-06T04:41:47.947Z,100572.44
2018-05-06T04:44:21.667Z,100566.98
2018-05-06T04:46:54.396Z,100568.45
2018-05-06T04:49:26.490Z,100579.44
2018-05-06T04:51:58.578Z,100587.12
2018-05-06T04:54:31.036Z,100586.36
2018-05-06T04:57:05.033Z,100582.36
2018-05-06T04:59:39.133Z,100589.86
2018-05-06T05:02:18.440Z,100587.12
2018-05-06T05:04:50.948Z,100585.87
2018-05-06T05:07:24.108Z,100582.95
2018-05-06T05:09:57.234Z,100585.58
2018-05-06T05:12:28.954Z,100587.22
2018-05-06T05:15:04.727Z,100586.02
2018-05-06T05:17:38.269Z,100582.80
2018-05-06T05:20:09.775Z,100581.02
2018-05-06T05:22:43.020Z,100570.91
2018-05-06T05:25:16.510Z,100581.09
2018-05-06T05:27:51.551Z,100585.27
2018-05-06T05:30:23.973Z,100580.84
2018-05-06T05:32:56.236Z,100578.34
2018-05-06T05:35:30.169Z,100587.20
2018-05-06T05:38:04.084Z,100582.17
2018-05-06T05:40:36.765Z,100582.36
2018-05-06T05:43:09.952Z,100574.62
2018-05-06T05:45:43.215Z,100583.05
2018-05-06T05:48:17.163Z,100575.28
2018-05-06T05:50:50.779Z,100574.33
2018-05-06T05:53:23.983Z,100581.45
2018-05-06T05:55:57.470Z,100583.88
2018-05-06T05:58:30.591Z,100582.78
2018-05-06T06:01:04.999Z,100582.77
2018-05-06T06:03:38.223Z,100572.94
2018-05-06T06:06:10.875Z,100584.36
2018-05-06T06:08:44.129Z,100580.91
2018-05-06T06:11:15.584Z,100582.48
2018-05-06T06:13:49.949Z,100588.23
2018-05-06T06:16:23.389Z,100588.28
2018-05-06T06:18:55.653Z,100591.59
2018-05-06T06:21:28.774Z,100593.72
2018-05-06T06:24:00.919Z,100596.42
2018-05-06T06:26:33.255Z,100593.73
2018-05-06T06:29:06.726Z,100596.61
2018-05-06T06:31:40.059Z,100595.63
2018-05-06T06:34:13.213Z,100598.80
2018-05-06T06:36:47.011Z,100602.49
2018-05-06T06:39:26.775Z,100599.51
2018-05-06T06:42:00.459Z,100599.41
2018-05-06T06:44:32.706Z,100601.04
2018-05-06T06:47:05.944Z,100602.20
2018-05-06T06:49:39.994Z,100597.54
2018-05-06T06:52:15.415Z,100607.91
2018-05-06T06:54:48.867Z,100603.96
2018-05-06T06:57:21.198Z,100600.33
2018-05-06T06:59:54.452Z,100598.77
2018-05-06T07:02:28.940Z,100605.55
2018-05-06T07:05:01.319Z,100609.83
2018-05-06T07:07:34.915Z,100610.47
2018-05-06T07:10:07.006Z,100601.34
2018-05-06T07:12:40.787Z,100611.30
2018-05-06T07:15:16.418Z,100647.16
2018-05-06T07:17:49.713Z,100618.11
2018-05-06T07:20:23.639Z,100621.34
2018-05-06T07:22:58.181Z,100616.53
2018-05-06T07:25:31.631Z,100619.85
2018-05-06T07:28:04.875Z,100619.02
2018-05-06T07:30:38.346Z,100616.95
2018-05-06T07:33:10.476Z,100621.39
2018-05-06T07:35:44.131Z,100618.84
2018-05-06T07:38:17.475Z,100626.16
2018-05-06T07:40:49.794Z,100619.20
2018-05-06T07:43:24.267Z,100626.06
2018-05-06T07:45:56.811Z,100630.78
2018-05-06T08:01:27.323Z,100620.16
2018-05-06T08:04:01.742Z,100618.34
2018-05-06T08:06:35.718Z,100616.07
2018-05-06T08:09:09.138Z,100614.91
2018-05-06T08:11:42.702Z,100613.78
2018-05-06T08:14:17.392Z,100617.23
2018-05-06T08:16:51.483Z,100604.59
2018-05-06T08:19:24.677Z,100604.55
2018-05-06T08:21:56.370Z,100611.20
2018-05-06T08:24:30.459Z,100612.19
2018-05-06T08:27:04.629Z,100607.54
2018-05-06T08:29:37.872Z,100608.55
2018-05-06T08:32:10.755Z,100606.32
2018-05-06T08:34:44.967Z,100611.67
2018-05-06T08:37:16.444Z,100604.21
2018-05-06T08:39:51.151Z,100605.41
2018-05-06T08:42:25.098Z,100599.03
2018-05-06T08:45:00.357Z,100599.47
2018-05-06T08:47:35.487Z,100598.34
2018-05-06T08:50:09.910Z,100587.78
2018-05-06T08:52:42.493Z,100589.52
2018-05-06T08:55:14.729Z,100591.92
2018-05-06T08:57:47.808Z,100578.22
2018-05-06T09:00:19.193Z,100586.63
2018-05-06T09:02:55.078Z,100584.20
2018-05-06T09:05:28.343Z,100585.34
2018-05-06T09:08:01.838Z,100590.83
2018-05-06T09:10:35.116Z,100583.88
2018-05-06T09:13:07.627Z,100587.16
2018-05-06T09:15:40.956Z,100585.93
2018-05-06T09:18:14.479Z,100593.48
2018-05-06T09:20:47.727Z,100592.65
2018-05-06T09:23:21.243Z,100589.03
2018-05-06T09:25:55.576Z,100581.86
2018-05-06T09:28:28.025Z,100587.63
2018-05-06T09:31:01.931Z,100586.87
2018-05-06T09:33:36.156Z,100579.75
2018-05-06T09:36:07.694Z,100589.75
2018-05-06T09:38:41.534Z,100573.62
2018-05-06T09:41:14.811Z,100581.09
2018-05-06T09:43:49.568Z,100569.98
2018-05-06T09:46:23.168Z,100578.40
2018-05-06T09:48:54.884Z,100568.48
2018-05-06T09:51:28.124Z,100566.13
2018-05-06T09:54:01.340Z,100563.91
2018-05-06T09:56:40.113Z,100559.91
2018-05-06T09:59:15.791Z,100552.48
2018-05-06T10:01:49.142Z,100555.51
2018-05-06T10:04:21.313Z,100555.73
2018-05-06T10:06:54.636Z,100552.22
2018-05-06T10:09:27.826Z,100536.67
2018-05-06T10:12:02.108Z,100543.21
2018-05-06T10:14:35.653Z,100541.64
2018-05-06T10:17:09.723Z,100537.59
2018-05-06T10:19:43.037Z,100544.58
2018-05-06T10:22:16.260Z,100540.67
2018-05-06T10:24:49.762Z,100544.02
2018-05-06T10:27:22.901Z,100543.67
2018-05-06T10:29:56.131Z,100539.34
2018-05-06T10:32:29.291Z,100532.85
2018-05-06T10:35:02.421Z,100534.89
2018-05-06T10:37:35.693Z,100523.94
2018-05-06T10:40:09.475Z,100536.22
2018-05-06T10:42:42.637Z,100516.83
2018-05-06T10:47:52.272Z,100524.67
2018-05-06T10:50:25.543Z,100523.42
2018-05-06T10:53:00.075Z,100516.78
2018-05-06T10:55:33.323Z,100522.92
2018-05-06T10:58:06.621Z,100519.67
2018-05-06T11:00:40.590Z,100515.50
2018-05-06T11:03:13.888Z,100507.08
2018-05-06T11:05:47.633Z,100514.86
2018-05-06T11:08:21.283Z,100504.59
2018-05-06T11:10:55.771Z,100501.53
2018-05-06T11:13:29.789Z,100498.78
2018-05-06T11:16:03.835Z,100491.93
2018-05-06T11:18:37.060Z,100489.25
2018-05-06T11:21:10.240Z,100482.80
2018-05-06T11:23:43.395Z,100478.34
2018-05-06T11:26:16.594Z,100473.38
2018-05-06T11:28:50.126Z,100465.80
2018-05-06T11:31:23.331Z,100472.92
2018-05-06T11:33:56.789Z,100461.80
2018-05-06T11:36:30.992Z,100471.16
2018-05-06T11:39:05.861Z,100475.17
2018-05-06T11:41:41.778Z,100471.79
2018-05-06T11:44:15.842Z,100470.65
2018-05-06T11:46:51.618Z,100464.80
2018-05-06T11:49:26.755Z,100464.04
2018-05-06T11:52:02.473Z,100464.87
2018-05-06T11:54:39.644Z,100455.27
2018-05-06T12:00:00.907Z,100453.95
2018-05-06T12:02:34.150Z,100449.39
2018-05-06T12:05:07.470Z,100436.25
2018-05-06T12:07:41.598Z,100441.61
2018-05-06T12:10:16.069Z,100436.92
2018-05-06T12:12:49.609Z,100431.69
2018-05-06T12:15:23.273Z,100439.52
2018-05-06T12:17:56.374Z,100420.15
2018-05-06T12:20:29.645Z,100421.67
2018-05-06T12:23:02.870Z,100414.06
2018-05-06T12:25:36.303Z,100411.58
2018-05-06T12:28:09.584Z,100409.38
2018-05-06T12:30:43.498Z,100403.45
2018-05-06T12:33:16.678Z,100393.86
2018-05-06T12:35:51.119Z,100402.56
2018-05-06T12:38:24.367Z,100400.41
2018-05-06T12:40:57.649Z,100394.34
2018-05-06T12:43:31.937Z,100397.20
2018-05-06T12:46:05.672Z,100391.73
2018-05-06T12:48:38.817Z,100393.45
2018-05-06T12:51:12.141Z,100385.78
2018-05-06T12:53:49.583Z,100380.38
2018-05-06T12:56:27.686Z,100372.52
2018-05-06T12:59:01.727Z,100378.68
2018-05-06T13:01:38.157Z,100363.76
2018-05-06T13:04:14.720Z,100357.77
2018-05-06T13:06:51.276Z,100346.47
2018-05-06T13:09:27.803Z,100353.69
2018-05-06T13:12:05.014Z,100357.70
2018-05-06T13:14:40.539Z,100350.62
2018-05-06T13:17:18.005Z,100350.67
2018-05-06T13:19:52.342Z,100352.44
2018-05-06T13:22:27.626Z,100351.48
2018-05-06T13:25:04.950Z,100354.65
2018-05-06T13:27:50.383Z,100352.70
2018-05-06T13:30:23.991Z,100340.80
2018-05-06T13:32:57.508Z,100347.42
2018-05-06T13:35:32.456Z,100340.31
2018-05-06T13:38:05.988Z,100337.42
2018-05-06T13:40:39.630Z,100329.14
2018-05-06T13:43:13.643Z,100333.66
2018-05-06T13:45:46.958Z,100324.19
2018-05-06T13:48:21.148Z,100324.16
2018-05-06T13:50:54.849Z,100323.45
2018-05-06T13:53:28.445Z,100324.32
2018-05-06T13:56:01.594Z,100313.66
2018-05-06T13:58:35.219Z,100319.83
2018-05-06T14:01:09.233Z,100308.70
2018-05-06T14:03:42.436Z,100296.49
2018-05-06T14:06:16.236Z,100302.90
2018-05-06T14:08:51.015Z,100304.31
2018-05-06T14:11:24.180Z,100298.28
2018-05-06T14:13:57.844Z,100294.45
2018-05-06T14:16:31.531Z,100288.81
2018-05-06T14:19:05.811Z,100289.64
2018-05-06T14:21:39.181Z,100279.22
2018-05-06T14:24:14.864Z,100288.59
2018-05-06T14:26:48.092Z,100274.56
2018-05-06T14:29:23.167Z,100285.78
2018-05-06T14:31:58.017Z,100279.17
2018-05-06T14:34:32.557Z,100269.75
2018-05-06T14:37:07.030Z,100279.90
2018-05-06T14:39:42.246Z,100271.23
2018-05-06T14:42:18.526Z,100261.00
2018-05-06T14:44:57.264Z,100266.72
2018-05-06T14:48:40.386Z,100264.82
2018-05-06T14:51:14.567Z,100260.23
2018-05-06T14:53:47.821Z,100259.34
2018-05-06T14:56:21.617Z,100267.51
2018-05-06T14:58:55.536Z,100260.20
2018-05-06T15:01:29.047Z,100259.52
2018-05-06T15:04:02.540Z,100261.03
2018-05-06T15:06:36.801Z,100252.28
2018-05-06T15:09:11.263Z,100255.38
2018-05-06T15:11:45.820Z,100245.98
2018-05-06T15:14:29.382Z,100255.21
2018-05-06T15:17:02.350Z,100244.16
2018-05-06T15:19:37.877Z,100246.17
2018-05-06T15:22:11.940Z,100246.46
2018-05-06T15:24:45.626Z,100244.42
2018-05-06T15:27:18.789Z,100241.20
2018-05-06T15:29:52.269Z,100238.81
2018-05-06T15:32:25.494Z,100232.71
2018-05-06T15:35:01.031Z,100232.72
2018-05-06T15:37:34.300Z,100226.45
2018-05-06T15:40:07.742Z,100228.06
2018-05-06T15:42:40.915Z,100220.06
2018-05-06T15:45:17.108Z,100224.85
2018-05-06T15:47:50.501Z,100221.88
2018-05-06T15:50:24.483Z,100230.98
2018-05-06T15:52:57.905Z,100224.16
2018-05-06T15:55:31.464Z,100223.39
2018-05-06T15:58:04.729Z,100212.68
2018-05-06T16:04:16.409Z,100212.38
2018-05-06T16:06:51.182Z,100217.52
2018-05-06T16:09:24.469Z,100213.16
2018-05-06T16:11:59.438Z,100216.09
2018-05-06T16:14:36.193Z,100210.80
2018-05-06T16:17:09.443Z,100207.80
2018-05-06T16:19:43.132Z,100211.97
2018-05-06T16:22:16.353Z,100206.89
2018-05-06T16:24:49.668Z,100207.56
2018-05-06T16:27:22.862Z,100214.91
2018-05-06T16:29:56.464Z,100200.84
2018-05-06T16:32:30.394Z,100204.30
2018-05-06T16:35:04.854Z,100211.62
2018-05-06T16:37:38.342Z,100221.71
2018-05-06T16:40:12.649Z,100214.45
2018-05-06T16:42:45.913Z,100202.25
2018-05-06T16:45:19.483Z,100206.77
2018-05-06T16:47:53.026Z,100208.29
2018-05-06T16:50:26.447Z,100211.20
2018-05-06T16:52:59.644Z,100208.25
2018-05-06T16:55:32.927Z,100202.78
2018-05-06T16:58:06.216Z,100197.95
2018-05-06T17:00:39.750Z,100196.16
2018-05-06T17:03:13.748Z,100200.29
2018-05-06T17:05:47.073Z,100205.63
2018-05-06T17:08:20.324Z,100206.87
2018-05-06T17:10:57.771Z,100210.45
2018-05-06T17:13:30.907Z,100205.92
2018-05-06T17:16:04.231Z,100197.41
2018-05-06T17:18:37.506Z,100206.07
2018-05-06T17:21:13.161Z,100217.92
2018-05-06T17:23:46.536Z,100216.56
2018-05-06T17:26:20.117Z,100202.56
2018-05-06T17:28:53.500Z,100206.63
2018-05-06T17:31:27.151Z,100197.89
2018-05-06T17:34:01.628Z,100209.36
2018-05-06T17:36:35.142Z,100216.69
2018-05-06T17:39:08.637Z,100216.67
2018-05-06T17:41:42.200Z,100217.47
2018-05-06T17:44:15.867Z,100218.06
2018-05-06T17:46:50.562Z,100222.48
2018-05-06T17:49:23.834Z,100224.41
2018-05-06T17:51:57.140Z,100226.98
2018-05-06T17:57:16.961Z,100231.70
2018-05-06T17:59:50.402Z,100227.91
2018-05-06T18:02:24.302Z,100233.69
2018-05-06T18:04:57.777Z,100227.53
2018-05-06T18:07:31.048Z,100236.63
2018-05-06T18:10:05.831Z,100237.88
2018-05-06T18:12:39.156Z,100236.64
2018-05-06T18:15:14.778Z,100242.48
2018-05-06T18:17:48.323Z,100245.16
2018-05-06T18:20:21.475Z,100273.57
2018-05-06T18:22:54.870Z,100244.57
2018-05-06T18:25:28.241Z,100245.45
2018-05-06T18:28:00.446Z,100248.73
2018-05-06T18:30:35.450Z,100250.20
2018-05-06T18:33:08.453Z,100251.20
2018-05-06T18:35:41.708Z,100251.00
2018-05-06T18:38:15.207Z,100252.31
2018-05-06T18:40:49.290Z,100255.76
2018-05-06T18:43:22.843Z,100256.69
2018-05-06T18:45:56.640Z,100265.44
2018-05-06T18:48:29.995Z,100255.20
2018-05-06T18:51:02.622Z,100263.70
2018-05-06T18:53:35.511Z,100259.70
2018-05-06T18:56:08.745Z,100269.06
2018-05-06T18:58:42.309Z,100263.87
2018-05-06T19:01:16.232Z,100267.11
2018-05-06T19:03:48.574Z,100268.05
2018-05-06T19:06:22.226Z,100277.94
2018-05-06T19:08:55.514Z,100269.72
2018-05-06T19:11:28.695Z,100279.45
2018-05-06T19:14:00.473Z,100279.00
2018-05-06T19:16:34.496Z,100277.17
2018-05-06T19:19:08.312Z,100281.11
2018-05-06T19:21:39.381Z,100284.63
2018-05-06T19:24:14.160Z,100279.58
2018-05-06T19:26:47.071Z,100278.88
2018-05-06T19:29:19.280Z,100280.59
2018-05-06T19:31:50.850Z,100281.45
2018-05-06T19:34:24.061Z,100290.91
2018-05-06T19:36:56.132Z,100291.53
2018-05-06T19:39:30.837Z,100295.77
2018-05-06T19:42:06.166Z,100285.86
2018-05-06T19:44:37.843Z,100297.22
2018-05-06T19:47:11.496Z,100291.16
2018-05-06T19:49:44.813Z,100289.30
2018-05-06T19:52:17.094Z,100288.66
2018-05-06T19:54:51.264Z,100296.58
2018-05-06T19:57:24.160Z,100291.67
2018-05-06T19:59:57.336Z,100296.75
2018-05-06T20:02:29.583Z,100288.89
2018-05-06T20:05:01.931Z,100290.25
2018-05-06T20:07:36.927Z,100284.36
2018-05-06T20:10:10.432Z,100291.08
2018-05-06T20:12:43.019Z,100294.56
2018-05-06T20:15:16.718Z,100306.56
2018-05-06T20:17:50.038Z,100300.80
2018-05-06T20:20:23.478Z,100309.09
2018-05-06T20:22:56.496Z,100297.42
2018-05-06T20:25:28.485Z,100306.75
2018-05-06T20:27:59.801Z,100305.31
2018-05-06T20:30:33.372Z,100310.97
2018-05-06T20:33:05.667Z,100306.41
2018-05-06T20:35:38.869Z,100309.89
2018-05-06T20:38:11.327Z,100313.67
2018-05-06T20:40:44.633Z,100316.42
2018-05-06T20:43:16.952Z,100308.17
2018-05-06T20:45:49.234Z,100308.83
2018-05-06T20:48:21.018Z,100322.53
2018-05-06T20:50:52.426Z,100314.23
2018-05-06T20:53:25.956Z,100325.98
2018-05-06T20:55:58.935Z,100329.61
2018-05-06T20:58:31.162Z,100328.97
2018-05-06T21:01:02.840Z,100366.70
2018-05-06T21:03:36.508Z,100332.73
2018-05-06T21:06:10.286Z,100326.91
2018-05-06T21:08:41.410Z,100326.27
2018-05-06T21:11:15.339Z,100335.53
2018-05-06T21:13:49.835Z,100325.14
2018-05-06T21:16:21.834Z,100332.41
2018-05-06T21:18:54.960Z,100320.98
2018-05-06T21:21:27.912Z,100321.73
2018-05-06T21:24:00.906Z,100328.98
2018-05-06T21:26:33.185Z,100321.08
2018-05-06T21:29:06.926Z,100325.58
2018-05-06T21:31:38.385Z,100333.26
2018-05-06T21:34:11.723Z,100330.22
2018-05-06T21:36:44.982Z,100329.94
2018-05-06T21:39:18.191Z,100331.78
2018-05-06T21:41:51.441Z,100334.16
2018-05-06T21:44:25.757Z,100329.19
2018-05-06T21:46:59.663Z,100332.50
2018-05-06T21:49:31.572Z,100332.48
2018-05-06T21:52:03.563Z,100336.77
2018-05-06T21:54:37.526Z,100336.45
2018-05-06T21:57:10.275Z,100331.77
2018-05-06T21:59:43.452Z,100333.73
2018-05-06T22:02:15.426Z,100334.02
2018-05-06T22:04:48.611Z,100328.84
2018-05-06T22:07:21.945Z,100337.53
2018-05-06T22:09:55.467Z,100340.75
2018-05-06T22:12:29.090Z,100342.19
2018-05-06T22:15:06.227Z,100338.11
2018-05-06T22:17:39.939Z,100343.20
2018-05-06T22:20:15.035Z,100342.81
2018-05-06T22:22:46.988Z,100341.39
2018-05-06T22:25:19.451Z,100338.80
2018-05-06T22:27:53.962Z,100335.89
2018-05-06T22:30:27.206Z,100336.51
2018-05-06T22:33:01.139Z,100339.48
2018-05-06T22:35:37.132Z,100336.82
2018-05-06T22:38:10.036Z,100337.22
2018-05-06T22:40:42.930Z,100339.72
2018-05-06T22:43:16.277Z,100339.41
2018-05-06T22:45:49.185Z,100337.23
2018-05-06T22:48:23.041Z,100336.19
2018-05-06T22:50:56.430Z,100332.96
2018-05-06T22:53:28.332Z,100335.36
2018-05-06T22:56:01.676Z,100339.09
2018-05-06T22:58:33.927Z,100334.91
2018-05-06T23:01:08.532Z,100328.30
2018-05-06T23:03:41.719Z,100333.38
2018-05-06T23:06:14.900Z,100335.46
2018-05-06T23:08:50.297Z,100333.97
2018-05-06T23:11:23.807Z,100336.77
2018-05-06T23:13:57.387Z,100331.03
2018-05-06T23:16:31.676Z,100329.63
2018-05-06T23:19:04.145Z,100329.33
2018-05-06T23:21:37.290Z,100326.70
2018-05-06T23:24:12.096Z,100330.47
2018-05-06T23:26:43.889Z,100331.29
2018-05-06T23:29:17.283Z,100333.97
2018-05-06T23:31:52.258Z,100329.06
2018-05-06T23:34:24.552Z,100332.70
2018-05-06T23:36:59.461Z,100329.13
2018-05-06T23:39:32.625Z,100327.78
2018-05-06T23:42:04.976Z,100319.72
2018-05-06T23:44:41.465Z,100317.50
2018-05-06T23:47:15.624Z,100346.59
2018-05-06T23:49:48.862Z,100324.28
2018-05-06T23:52:22.708Z,100326.89
2018-05-06T23:54:56.882Z,100328.53
2018-05-06T23:57:29.396Z,100317.58
